sensor_id;sensor_type;location;lat;lon;timestamp;P1;durP1;ratioP1;P2;durP2;ratioP2
10711;SDS011;5407;51.234;6.804;2023-12-28T00:00:07;3.27;;;1.87;;
10711;SDS011;5407;51.234;6.804;2023-12-28T00:02:36;4.43;;;2.10;;
10711;SDS011;5407;51.234;6.804;2023-12-28T00:05:03;2.93;;;1.80;;
10711;SDS011;5407;51.234;6.804;2023-12-28T00:07:30;3.33;;;1.80;;
10711;SDS011;5407;51.234;6.804;2023-12-28T00:09:57;3.20;;;1.50;;
10711;SDS011;5407;51.234;6.804;2023-12-28T00:12:24;3.17;;;2.00;;
10711;SDS011;5407;51.234;6.804;2023-12-28T00:14:51;2.13;;;1.90;;
10711;SDS011;5407;51.234;6.804;2023-12-28T00:17:18;2.53;;;1.87;;
10711;SDS011;5407;51.234;6.804;2023-12-28T00:19:46;3.73;;;2.00;;
10711;SDS011;5407;51.234;6.804;2023-12-28T00:22:13;4.50;;;1.70;;
10711;SDS011;5407;51.234;6.804;2023-12-28T00:24:39;2.00;;;1.60;;
10711;SDS011;5407;51.234;6.804;2023-12-28T00:27:06;2.53;;;1.70;;
10711;SDS011;5407;51.234;6.804;2023-12-28T00:29:33;2.63;;;1.70;;
10711;SDS011;5407;51.234;6.804;2023-12-28T00:32:04;4.30;;;2.13;;
10711;SDS011;5407;51.234;6.804;2023-12-28T00:34:31;2.73;;;1.97;;
10711;SDS011;5407;51.234;6.804;2023-12-28T00:36:59;3.87;;;2.20;;
10711;SDS011;5407;51.234;6.804;2023-12-28T00:39:26;2.43;;;1.60;;
10711;SDS011;5407;51.234;6.804;2023-12-28T00:41:53;4.00;;;1.87;;
10711;SDS011;5407;51.234;6.804;2023-12-28T00:44:20;2.97;;;2.00;;
10711;SDS011;5407;51.234;6.804;2023-12-28T00:46:47;3.30;;;1.90;;
10711;SDS011;5407;51.234;6.804;2023-12-28T00:49:14;4.30;;;1.70;;
10711;SDS011;5407;51.234;6.804;2023-12-28T00:51:41;3.07;;;1.90;;
10711;SDS011;5407;51.234;6.804;2023-12-28T00:54:09;3.67;;;2.20;;
10711;SDS011;5407;51.234;6.804;2023-12-28T00:56:36;2.70;;;2.00;;
10711;SDS011;5407;51.234;6.804;2023-12-28T00:59:03;3.00;;;2.30;;
10711;SDS011;5407;51.234;6.804;2023-12-28T01:01:30;2.67;;;2.00;;
10711;SDS011;5407;51.234;6.804;2023-12-28T01:03:57;2.07;;;1.67;;
10711;SDS011;5407;51.234;6.804;2023-12-28T01:06:23;4.17;;;2.20;;
10711;SDS011;5407;51.234;6.804;2023-12-28T01:08:53;3.17;;;1.90;;
10711;SDS011;5407;51.234;6.804;2023-12-28T01:11:21;2.40;;;2.10;;
10711;SDS011;5407;51.234;6.804;2023-12-28T01:13:48;3.43;;;2.50;;
10711;SDS011;5407;51.234;6.804;2023-12-28T01:16:15;4.13;;;2.37;;
10711;SDS011;5407;51.234;6.804;2023-12-28T01:18:42;2.50;;;2.10;;
10711;SDS011;5407;51.234;6.804;2023-12-28T01:21:08;3.97;;;2.10;;
10711;SDS011;5407;51.234;6.804;2023-12-28T01:23:35;3.30;;;2.40;;
10711;SDS011;5407;51.234;6.804;2023-12-28T01:26:02;2.60;;;2.20;;
10711;SDS011;5407;51.234;6.804;2023-12-28T01:28:30;2.80;;;2.17;;
10711;SDS011;5407;51.234;6.804;2023-12-28T01:30:57;4.87;;;2.23;;
10711;SDS011;5407;51.234;6.804;2023-12-28T01:33:24;3.63;;;2.20;;
10711;SDS011;5407;51.234;6.804;2023-12-28T01:35:51;3.87;;;2.00;;
10711;SDS011;5407;51.234;6.804;2023-12-28T01:38:18;3.87;;;1.87;;
10711;SDS011;5407;51.234;6.804;2023-12-28T01:40:45;3.23;;;2.00;;
10711;SDS011;5407;51.234;6.804;2023-12-28T01:43:12;2.53;;;2.00;;
10711;SDS011;5407;51.234;6.804;2023-12-28T01:45:40;2.93;;;2.13;;
10711;SDS011;5407;51.234;6.804;2023-12-28T01:48:07;4.27;;;1.90;;
10711;SDS011;5407;51.234;6.804;2023-12-28T01:50:34;3.60;;;2.10;;
10711;SDS011;5407;51.234;6.804;2023-12-28T01:53:02;3.60;;;2.03;;
10711;SDS011;5407;51.234;6.804;2023-12-28T01:55:29;3.70;;;2.10;;
10711;SDS011;5407;51.234;6.804;2023-12-28T01:57:57;4.70;;;2.20;;
10711;SDS011;5407;51.234;6.804;2023-12-28T02:00:24;2.67;;;2.30;;
10711;SDS011;5407;51.234;6.804;2023-12-28T02:02:53;3.67;;;2.27;;
10711;SDS011;5407;51.234;6.804;2023-12-28T02:05:20;2.77;;;2.00;;
10711;SDS011;5407;51.234;6.804;2023-12-28T02:07:47;2.37;;;1.77;;
10711;SDS011;5407;51.234;6.804;2023-12-28T02:10:14;3.83;;;2.37;;
10711;SDS011;5407;51.234;6.804;2023-12-28T02:12:42;3.07;;;2.10;;
10711;SDS011;5407;51.234;6.804;2023-12-28T02:15:09;2.83;;;2.00;;
10711;SDS011;5407;51.234;6.804;2023-12-28T02:17:37;3.50;;;2.23;;
10711;SDS011;5407;51.234;6.804;2023-12-28T02:20:09;3.23;;;2.10;;
10711;SDS011;5407;51.234;6.804;2023-12-28T02:22:37;2.53;;;1.80;;
10711;SDS011;5407;51.234;6.804;2023-12-28T02:25:08;2.53;;;1.90;;
10711;SDS011;5407;51.234;6.804;2023-12-28T02:27:38;2.60;;;2.00;;
10711;SDS011;5407;51.234;6.804;2023-12-28T02:30:06;2.53;;;2.17;;
10711;SDS011;5407;51.234;6.804;2023-12-28T02:32:44;2.53;;;2.10;;
10711;SDS011;5407;51.234;6.804;2023-12-28T02:35:17;3.87;;;2.30;;
10711;SDS011;5407;51.234;6.804;2023-12-28T02:37:51;5.30;;;2.30;;
10711;SDS011;5407;51.234;6.804;2023-12-28T02:40:21;3.30;;;2.30;;
10711;SDS011;5407;51.234;6.804;2023-12-28T02:42:50;6.90;;;2.57;;
10711;SDS011;5407;51.234;6.804;2023-12-28T02:45:17;3.50;;;2.47;;
10711;SDS011;5407;51.234;6.804;2023-12-28T02:47:45;3.17;;;1.90;;
10711;SDS011;5407;51.234;6.804;2023-12-28T02:50:12;2.37;;;2.10;;
10711;SDS011;5407;51.234;6.804;2023-12-28T02:52:39;4.97;;;2.20;;
10711;SDS011;5407;51.234;6.804;2023-12-28T02:55:06;5.60;;;2.20;;
10711;SDS011;5407;51.234;6.804;2023-12-28T02:57:34;3.97;;;2.50;;
10711;SDS011;5407;51.234;6.804;2023-12-28T03:00:04;2.60;;;2.03;;
10711;SDS011;5407;51.234;6.804;2023-12-28T03:02:33;4.00;;;2.20;;
10711;SDS011;5407;51.234;6.804;2023-12-28T03:05:02;5.53;;;2.60;;
10711;SDS011;5407;51.234;6.804;2023-12-28T03:07:29;3.47;;;2.40;;
10711;SDS011;5407;51.234;6.804;2023-12-28T03:09:57;4.77;;;2.27;;
10711;SDS011;5407;51.234;6.804;2023-12-28T03:12:23;3.40;;;2.10;;
10711;SDS011;5407;51.234;6.804;2023-12-28T03:14:52;3.33;;;2.30;;
10711;SDS011;5407;51.234;6.804;2023-12-28T03:17:20;5.33;;;2.30;;
10711;SDS011;5407;51.234;6.804;2023-12-28T03:19:47;4.57;;;2.50;;
10711;SDS011;5407;51.234;6.804;2023-12-28T03:22:14;4.43;;;2.40;;
10711;SDS011;5407;51.234;6.804;2023-12-28T03:24:42;4.10;;;2.30;;
10711;SDS011;5407;51.234;6.804;2023-12-28T03:27:09;4.17;;;2.27;;
10711;SDS011;5407;51.234;6.804;2023-12-28T03:29:36;3.07;;;2.30;;
10711;SDS011;5407;51.234;6.804;2023-12-28T03:32:05;3.23;;;2.20;;
10711;SDS011;5407;51.234;6.804;2023-12-28T03:34:32;5.23;;;2.40;;
10711;SDS011;5407;51.234;6.804;2023-12-28T03:36:59;4.93;;;2.50;;
10711;SDS011;5407;51.234;6.804;2023-12-28T03:39:26;2.93;;;2.23;;
10711;SDS011;5407;51.234;6.804;2023-12-28T03:41:54;4.40;;;2.30;;
10711;SDS011;5407;51.234;6.804;2023-12-28T03:44:21;3.43;;;2.23;;
10711;SDS011;5407;51.234;6.804;2023-12-28T03:46:48;4.37;;;2.50;;
10711;SDS011;5407;51.234;6.804;2023-12-28T03:49:17;3.43;;;2.40;;
10711;SDS011;5407;51.234;6.804;2023-12-28T03:51:45;7.37;;;2.23;;
10711;SDS011;5407;51.234;6.804;2023-12-28T03:54:12;4.60;;;2.30;;
10711;SDS011;5407;51.234;6.804;2023-12-28T03:56:42;4.20;;;2.20;;
10711;SDS011;5407;51.234;6.804;2023-12-28T03:59:09;4.20;;;2.30;;
10711;SDS011;5407;51.234;6.804;2023-12-28T04:01:36;3.70;;;2.30;;
10711;SDS011;5407;51.234;6.804;2023-12-28T04:04:03;4.67;;;2.57;;
10711;SDS011;5407;51.234;6.804;2023-12-28T04:06:31;3.97;;;2.40;;
10711;SDS011;5407;51.234;6.804;2023-12-28T04:08:58;4.80;;;2.73;;
10711;SDS011;5407;51.234;6.804;2023-12-28T04:11:25;3.90;;;2.20;;
10711;SDS011;5407;51.234;6.804;2023-12-28T04:13:52;7.23;;;2.30;;
10711;SDS011;5407;51.234;6.804;2023-12-28T04:16:20;7.03;;;2.43;;
10711;SDS011;5407;51.234;6.804;2023-12-28T04:18:47;5.13;;;2.50;;
10711;SDS011;5407;51.234;6.804;2023-12-28T04:21:15;6.00;;;2.57;;
10711;SDS011;5407;51.234;6.804;2023-12-28T04:23:43;4.67;;;2.37;;
10711;SDS011;5407;51.234;6.804;2023-12-28T04:26:10;4.27;;;2.30;;
10711;SDS011;5407;51.234;6.804;2023-12-28T04:28:37;4.60;;;2.50;;
10711;SDS011;5407;51.234;6.804;2023-12-28T04:31:05;5.57;;;2.17;;
10711;SDS011;5407;51.234;6.804;2023-12-28T04:33:32;4.00;;;2.20;;
10711;SDS011;5407;51.234;6.804;2023-12-28T04:36:00;3.27;;;2.13;;
10711;SDS011;5407;51.234;6.804;2023-12-28T04:38:29;3.87;;;2.43;;
10711;SDS011;5407;51.234;6.804;2023-12-28T04:40:58;7.50;;;2.33;;
10711;SDS011;5407;51.234;6.804;2023-12-28T04:43:25;4.07;;;2.40;;
10711;SDS011;5407;51.234;6.804;2023-12-28T04:45:52;4.13;;;2.27;;
10711;SDS011;5407;51.234;6.804;2023-12-28T04:48:19;5.57;;;1.97;;
10711;SDS011;5407;51.234;6.804;2023-12-28T04:50:48;4.00;;;2.20;;
10711;SDS011;5407;51.234;6.804;2023-12-28T04:53:15;3.53;;;2.10;;
10711;SDS011;5407;51.234;6.804;2023-12-28T04:55:42;5.83;;;2.00;;
10711;SDS011;5407;51.234;6.804;2023-12-28T04:58:11;2.87;;;1.90;;
10711;SDS011;5407;51.234;6.804;2023-12-28T05:00:38;4.60;;;2.20;;
10711;SDS011;5407;51.234;6.804;2023-12-28T05:03:05;6.33;;;1.90;;
10711;SDS011;5407;51.234;6.804;2023-12-28T05:05:32;4.43;;;2.40;;
10711;SDS011;5407;51.234;6.804;2023-12-28T05:07:59;4.83;;;2.30;;
10711;SDS011;5407;51.234;6.804;2023-12-28T05:10:26;4.43;;;2.07;;
10711;SDS011;5407;51.234;6.804;2023-12-28T05:12:53;5.23;;;2.10;;
10711;SDS011;5407;51.234;6.804;2023-12-28T05:15:22;4.67;;;2.33;;
10711;SDS011;5407;51.234;6.804;2023-12-28T05:17:49;5.50;;;2.00;;
10711;SDS011;5407;51.234;6.804;2023-12-28T05:20:16;4.30;;;2.00;;
10711;SDS011;5407;51.234;6.804;2023-12-28T05:22:43;4.10;;;2.10;;
10711;SDS011;5407;51.234;6.804;2023-12-28T05:25:10;5.30;;;2.10;;
10711;SDS011;5407;51.234;6.804;2023-12-28T05:27:37;4.03;;;1.90;;
10711;SDS011;5407;51.234;6.804;2023-12-28T05:30:05;3.00;;;2.00;;
10711;SDS011;5407;51.234;6.804;2023-12-28T05:32:34;4.03;;;2.00;;
10711;SDS011;5407;51.234;6.804;2023-12-28T05:35:01;5.33;;;2.00;;
10711;SDS011;5407;51.234;6.804;2023-12-28T05:37:28;4.50;;;2.67;;
10711;SDS011;5407;51.234;6.804;2023-12-28T05:39:55;2.87;;;2.00;;
10711;SDS011;5407;51.234;6.804;2023-12-28T05:42:22;6.57;;;2.17;;
10711;SDS011;5407;51.234;6.804;2023-12-28T05:44:49;3.33;;;2.40;;
10711;SDS011;5407;51.234;6.804;2023-12-28T05:47:16;3.83;;;2.10;;
10711;SDS011;5407;51.234;6.804;2023-12-28T05:49:46;5.43;;;2.00;;
10711;SDS011;5407;51.234;6.804;2023-12-28T05:52:13;3.10;;;1.70;;
10711;SDS011;5407;51.234;6.804;2023-12-28T05:54:42;2.97;;;1.67;;
10711;SDS011;5407;51.234;6.804;2023-12-28T05:57:09;2.03;;;1.70;;
10711;SDS011;5407;51.234;6.804;2023-12-28T05:59:37;2.93;;;1.83;;
10711;SDS011;5407;51.234;6.804;2023-12-28T06:02:04;5.27;;;1.73;;
10711;SDS011;5407;51.234;6.804;2023-12-28T06:04:31;3.50;;;1.80;;
10711;SDS011;5407;51.234;6.804;2023-12-28T06:07:00;4.73;;;2.00;;
10711;SDS011;5407;51.234;6.804;2023-12-28T06:09:28;4.97;;;2.10;;
10711;SDS011;5407;51.234;6.804;2023-12-28T06:11:54;3.77;;;2.10;;
10711;SDS011;5407;51.234;6.804;2023-12-28T06:14:20;5.17;;;1.90;;
10711;SDS011;5407;51.234;6.804;2023-12-28T06:16:47;3.93;;;2.00;;
10711;SDS011;5407;51.234;6.804;2023-12-28T06:19:14;3.97;;;2.10;;
10711;SDS011;5407;51.234;6.804;2023-12-28T06:21:41;2.67;;;2.07;;
10711;SDS011;5407;51.234;6.804;2023-12-28T06:24:09;4.80;;;2.13;;
10711;SDS011;5407;51.234;6.804;2023-12-28T06:26:38;4.50;;;2.40;;
10711;SDS011;5407;51.234;6.804;2023-12-28T06:29:06;3.70;;;1.97;;
10711;SDS011;5407;51.234;6.804;2023-12-28T06:31:33;3.60;;;2.20;;
10711;SDS011;5407;51.234;6.804;2023-12-28T06:34:01;4.03;;;2.10;;
10711;SDS011;5407;51.234;6.804;2023-12-28T06:36:28;5.70;;;2.10;;
10711;SDS011;5407;51.234;6.804;2023-12-28T06:38:56;3.60;;;1.90;;
10711;SDS011;5407;51.234;6.804;2023-12-28T06:41:24;6.43;;;2.30;;
10711;SDS011;5407;51.234;6.804;2023-12-28T06:43:51;5.10;;;2.13;;
10711;SDS011;5407;51.234;6.804;2023-12-28T06:46:18;5.97;;;2.33;;
10711;SDS011;5407;51.234;6.804;2023-12-28T06:48:45;4.53;;;2.20;;
10711;SDS011;5407;51.234;6.804;2023-12-28T06:51:18;4.37;;;2.13;;
10711;SDS011;5407;51.234;6.804;2023-12-28T06:53:46;3.83;;;2.13;;
10711;SDS011;5407;51.234;6.804;2023-12-28T06:56:13;8.27;;;2.40;;
10711;SDS011;5407;51.234;6.804;2023-12-28T06:58:42;7.67;;;2.10;;
10711;SDS011;5407;51.234;6.804;2023-12-28T07:01:09;6.07;;;2.53;;
10711;SDS011;5407;51.234;6.804;2023-12-28T07:03:36;6.10;;;2.13;;
10711;SDS011;5407;51.234;6.804;2023-12-28T07:06:03;8.67;;;2.50;;
10711;SDS011;5407;51.234;6.804;2023-12-28T07:08:30;7.77;;;2.23;;
10711;SDS011;5407;51.234;6.804;2023-12-28T07:10:56;6.20;;;2.30;;
10711;SDS011;5407;51.234;6.804;2023-12-28T07:13:23;6.87;;;2.30;;
10711;SDS011;5407;51.234;6.804;2023-12-28T07:15:52;6.33;;;2.13;;
10711;SDS011;5407;51.234;6.804;2023-12-28T07:18:18;7.40;;;2.27;;
10711;SDS011;5407;51.234;6.804;2023-12-28T07:20:45;5.73;;;2.13;;
10711;SDS011;5407;51.234;6.804;2023-12-28T07:23:12;8.30;;;2.60;;
10711;SDS011;5407;51.234;6.804;2023-12-28T07:25:39;8.00;;;2.40;;
10711;SDS011;5407;51.234;6.804;2023-12-28T07:28:06;8.70;;;2.70;;
10711;SDS011;5407;51.234;6.804;2023-12-28T07:30:33;11.50;;;3.00;;
10711;SDS011;5407;51.234;6.804;2023-12-28T07:33:01;6.57;;;2.30;;
10711;SDS011;5407;51.234;6.804;2023-12-28T07:35:28;5.57;;;2.30;;
10711;SDS011;5407;51.234;6.804;2023-12-28T07:37:54;7.30;;;2.40;;
10711;SDS011;5407;51.234;6.804;2023-12-28T07:40:21;7.60;;;2.70;;
10711;SDS011;5407;51.234;6.804;2023-12-28T07:42:48;6.83;;;2.20;;
10711;SDS011;5407;51.234;6.804;2023-12-28T07:45:15;7.50;;;2.30;;
10711;SDS011;5407;51.234;6.804;2023-12-28T07:47:42;8.90;;;2.70;;
10711;SDS011;5407;51.234;6.804;2023-12-28T07:50:11;6.13;;;2.30;;
10711;SDS011;5407;51.234;6.804;2023-12-28T07:52:38;8.63;;;2.23;;
10711;SDS011;5407;51.234;6.804;2023-12-28T07:55:05;6.43;;;2.00;;
10711;SDS011;5407;51.234;6.804;2023-12-28T07:57:32;9.83;;;2.30;;
10711;SDS011;5407;51.234;6.804;2023-12-28T07:59:59;6.27;;;1.97;;
10711;SDS011;5407;51.234;6.804;2023-12-28T08:02:26;6.77;;;2.27;;
10711;SDS011;5407;51.234;6.804;2023-12-28T08:04:53;4.90;;;2.30;;
10711;SDS011;5407;51.234;6.804;2023-12-28T08:07:21;12.80;;;3.00;;
10711;SDS011;5407;51.234;6.804;2023-12-28T08:09:48;6.60;;;2.73;;
10711;SDS011;5407;51.234;6.804;2023-12-28T08:12:15;7.07;;;2.10;;
10711;SDS011;5407;51.234;6.804;2023-12-28T08:14:43;7.97;;;2.20;;
10711;SDS011;5407;51.234;6.804;2023-12-28T08:17:10;5.33;;;2.10;;
10711;SDS011;5407;51.234;6.804;2023-12-28T08:19:37;11.07;;;2.57;;
10711;SDS011;5407;51.234;6.804;2023-12-28T08:22:03;10.60;;;2.50;;
10711;SDS011;5407;51.234;6.804;2023-12-28T08:24:32;7.20;;;2.30;;
10711;SDS011;5407;51.234;6.804;2023-12-28T08:26:59;7.47;;;2.37;;
10711;SDS011;5407;51.234;6.804;2023-12-28T08:29:26;5.77;;;2.23;;
10711;SDS011;5407;51.234;6.804;2023-12-28T08:31:53;9.60;;;2.73;;
10711;SDS011;5407;51.234;6.804;2023-12-28T08:34:20;5.93;;;2.20;;
10711;SDS011;5407;51.234;6.804;2023-12-28T08:36:47;8.67;;;2.43;;
10711;SDS011;5407;51.234;6.804;2023-12-28T08:39:14;6.43;;;2.37;;
10711;SDS011;5407;51.234;6.804;2023-12-28T08:41:42;11.73;;;2.60;;
10711;SDS011;5407;51.234;6.804;2023-12-28T08:44:09;6.53;;;2.23;;
10711;SDS011;5407;51.234;6.804;2023-12-28T08:46:36;8.10;;;2.17;;
10711;SDS011;5407;51.234;6.804;2023-12-28T08:49:03;9.50;;;2.30;;
10711;SDS011;5407;51.234;6.804;2023-12-28T08:51:29;8.10;;;2.47;;
10711;SDS011;5407;51.234;6.804;2023-12-28T08:53:56;7.80;;;2.37;;
10711;SDS011;5407;51.234;6.804;2023-12-28T08:56:23;9.33;;;2.87;;
10711;SDS011;5407;51.234;6.804;2023-12-28T08:58:51;7.43;;;2.27;;
10711;SDS011;5407;51.234;6.804;2023-12-28T09:01:20;8.33;;;2.40;;
10711;SDS011;5407;51.234;6.804;2023-12-28T09:03:48;8.90;;;2.90;;
10711;SDS011;5407;51.234;6.804;2023-12-28T09:06:15;7.10;;;2.50;;
10711;SDS011;5407;51.234;6.804;2023-12-28T09:08:43;7.30;;;2.30;;
10711;SDS011;5407;51.234;6.804;2023-12-28T09:11:10;11.40;;;2.93;;
10711;SDS011;5407;51.234;6.804;2023-12-28T09:13:37;7.90;;;2.63;;
10711;SDS011;5407;51.234;6.804;2023-12-28T09:16:07;13.03;;;2.63;;
10711;SDS011;5407;51.234;6.804;2023-12-28T09:18:34;9.23;;;2.37;;
10711;SDS011;5407;51.234;6.804;2023-12-28T09:21:02;10.57;;;2.63;;
10711;SDS011;5407;51.234;6.804;2023-12-28T09:23:30;9.60;;;2.50;;
10711;SDS011;5407;51.234;6.804;2023-12-28T09:25:57;10.67;;;2.33;;
10711;SDS011;5407;51.234;6.804;2023-12-28T09:28:24;11.13;;;2.53;;
10711;SDS011;5407;51.234;6.804;2023-12-28T09:30:51;6.07;;;2.60;;
10711;SDS011;5407;51.234;6.804;2023-12-28T09:33:19;10.43;;;2.67;;
10711;SDS011;5407;51.234;6.804;2023-12-28T09:35:46;9.07;;;2.70;;
10711;SDS011;5407;51.234;6.804;2023-12-28T09:38:13;7.93;;;2.27;;
10711;SDS011;5407;51.234;6.804;2023-12-28T09:40:41;10.97;;;2.90;;
10711;SDS011;5407;51.234;6.804;2023-12-28T09:43:12;6.60;;;2.50;;
10711;SDS011;5407;51.234;6.804;2023-12-28T09:45:41;6.37;;;2.20;;
10711;SDS011;5407;51.234;6.804;2023-12-28T09:48:08;9.70;;;2.70;;
10711;SDS011;5407;51.234;6.804;2023-12-28T09:50:39;11.60;;;2.93;;
10711;SDS011;5407;51.234;6.804;2023-12-28T09:53:06;9.97;;;2.60;;
10711;SDS011;5407;51.234;6.804;2023-12-28T09:55:33;8.93;;;2.67;;
10711;SDS011;5407;51.234;6.804;2023-12-28T09:58:00;7.77;;;2.57;;
10711;SDS011;5407;51.234;6.804;2023-12-28T10:00:30;9.50;;;2.53;;
10711;SDS011;5407;51.234;6.804;2023-12-28T10:02:57;10.10;;;2.67;;
10711;SDS011;5407;51.234;6.804;2023-12-28T10:05:24;11.10;;;2.83;;
10711;SDS011;5407;51.234;6.804;2023-12-28T10:07:53;9.40;;;2.70;;
10711;SDS011;5407;51.234;6.804;2023-12-28T10:10:22;7.47;;;2.17;;
10711;SDS011;5407;51.234;6.804;2023-12-28T10:12:49;9.80;;;2.47;;
10711;SDS011;5407;51.234;6.804;2023-12-28T10:15:16;10.10;;;2.80;;
10711;SDS011;5407;51.234;6.804;2023-12-28T10:17:43;8.30;;;2.43;;
10711;SDS011;5407;51.234;6.804;2023-12-28T10:20:11;11.00;;;3.20;;
10711;SDS011;5407;51.234;6.804;2023-12-28T10:22:38;9.00;;;2.43;;
10711;SDS011;5407;51.234;6.804;2023-12-28T10:25:07;7.93;;;2.57;;
10711;SDS011;5407;51.234;6.804;2023-12-28T10:27:37;12.63;;;2.80;;
10711;SDS011;5407;51.234;6.804;2023-12-28T10:30:06;12.47;;;3.30;;
10711;SDS011;5407;51.234;6.804;2023-12-28T10:32:34;9.67;;;2.97;;
10711;SDS011;5407;51.234;6.804;2023-12-28T10:35:01;7.73;;;2.43;;
10711;SDS011;5407;51.234;6.804;2023-12-28T10:37:28;8.63;;;2.27;;
10711;SDS011;5407;51.234;6.804;2023-12-28T10:39:59;9.47;;;2.47;;
10711;SDS011;5407;51.234;6.804;2023-12-28T10:42:31;6.63;;;2.30;;
10711;SDS011;5407;51.234;6.804;2023-12-28T10:45:01;10.80;;;2.87;;
10711;SDS011;5407;51.234;6.804;2023-12-28T10:47:31;9.23;;;2.43;;
10711;SDS011;5407;51.234;6.804;2023-12-28T10:50:00;8.57;;;2.57;;
10711;SDS011;5407;51.234;6.804;2023-12-28T10:52:30;7.10;;;2.50;;
10711;SDS011;5407;51.234;6.804;2023-12-28T10:55:05;7.97;;;2.47;;
10711;SDS011;5407;51.234;6.804;2023-12-28T10:57:49;8.03;;;2.60;;
10711;SDS011;5407;51.234;6.804;2023-12-28T11:00:25;8.47;;;2.30;;
10711;SDS011;5407;51.234;6.804;2023-12-28T11:02:56;10.73;;;2.93;;
10711;SDS011;5407;51.234;6.804;2023-12-28T11:05:28;10.97;;;2.93;;
10711;SDS011;5407;51.234;6.804;2023-12-28T11:07:57;10.70;;;2.60;;
10711;SDS011;5407;51.234;6.804;2023-12-28T11:10:25;11.43;;;2.97;;
10711;SDS011;5407;51.234;6.804;2023-12-28T11:12:56;5.40;;;2.40;;
10711;SDS011;5407;51.234;6.804;2023-12-28T11:15:25;10.87;;;3.00;;
10711;SDS011;5407;51.234;6.804;2023-12-28T11:17:52;13.00;;;3.33;;
10711;SDS011;5407;51.234;6.804;2023-12-28T11:20:19;6.20;;;2.13;;
10711;SDS011;5407;51.234;6.804;2023-12-28T11:22:47;8.23;;;2.30;;
10711;SDS011;5407;51.234;6.804;2023-12-28T11:25:15;10.67;;;2.93;;
10711;SDS011;5407;51.234;6.804;2023-12-28T11:27:43;8.77;;;2.80;;
10711;SDS011;5407;51.234;6.804;2023-12-28T11:30:13;13.37;;;2.93;;
10711;SDS011;5407;51.234;6.804;2023-12-28T11:32:40;9.40;;;2.60;;
10711;SDS011;5407;51.234;6.804;2023-12-28T11:35:09;7.83;;;2.53;;
10711;SDS011;5407;51.234;6.804;2023-12-28T11:37:39;9.13;;;2.63;;
10711;SDS011;5407;51.234;6.804;2023-12-28T11:40:10;11.40;;;2.87;;
10711;SDS011;5407;51.234;6.804;2023-12-28T11:42:47;9.57;;;3.20;;
10711;SDS011;5407;51.234;6.804;2023-12-28T11:45:17;11.07;;;2.60;;
10711;SDS011;5407;51.234;6.804;2023-12-28T11:47:44;6.13;;;2.50;;
10711;SDS011;5407;51.234;6.804;2023-12-28T11:50:11;11.43;;;2.70;;
10711;SDS011;5407;51.234;6.804;2023-12-28T11:52:39;9.70;;;2.70;;
10711;SDS011;5407;51.234;6.804;2023-12-28T11:55:06;10.43;;;3.00;;
10711;SDS011;5407;51.234;6.804;2023-12-28T11:57:33;9.17;;;2.73;;
10711;SDS011;5407;51.234;6.804;2023-12-28T12:00:02;13.40;;;3.00;;
10711;SDS011;5407;51.234;6.804;2023-12-28T12:02:33;8.50;;;2.87;;
10711;SDS011;5407;51.234;6.804;2023-12-28T12:05:00;9.30;;;3.07;;
10711;SDS011;5407;51.234;6.804;2023-12-28T12:07:28;13.40;;;3.20;;
10711;SDS011;5407;51.234;6.804;2023-12-28T12:09:55;11.07;;;3.03;;
10711;SDS011;5407;51.234;6.804;2023-12-28T12:12:23;11.90;;;3.40;;
10711;SDS011;5407;51.234;6.804;2023-12-28T12:14:50;9.03;;;2.80;;
10711;SDS011;5407;51.234;6.804;2023-12-28T12:17:17;9.47;;;2.67;;
10711;SDS011;5407;51.234;6.804;2023-12-28T12:19:46;11.43;;;2.67;;
10711;SDS011;5407;51.234;6.804;2023-12-28T12:22:16;11.53;;;2.77;;
10711;SDS011;5407;51.234;6.804;2023-12-28T12:24:44;9.30;;;2.70;;
10711;SDS011;5407;51.234;6.804;2023-12-28T12:27:13;10.53;;;2.93;;
10711;SDS011;5407;51.234;6.804;2023-12-28T12:29:40;8.70;;;2.70;;
10711;SDS011;5407;51.234;6.804;2023-12-28T12:32:07;10.93;;;2.53;;
10711;SDS011;5407;51.234;6.804;2023-12-28T12:34:35;11.47;;;2.73;;
10711;SDS011;5407;51.234;6.804;2023-12-28T12:37:03;12.73;;;2.97;;
10711;SDS011;5407;51.234;6.804;2023-12-28T12:39:31;8.30;;;2.83;;
10711;SDS011;5407;51.234;6.804;2023-12-28T12:41:58;10.50;;;2.93;;
10711;SDS011;5407;51.234;6.804;2023-12-28T12:44:25;12.47;;;3.27;;
10711;SDS011;5407;51.234;6.804;2023-12-28T12:46:58;11.53;;;2.97;;
10711;SDS011;5407;51.234;6.804;2023-12-28T12:49:26;7.77;;;2.80;;
10711;SDS011;5407;51.234;6.804;2023-12-28T12:51:53;13.53;;;3.30;;
10711;SDS011;5407;51.234;6.804;2023-12-28T12:54:21;8.93;;;3.17;;
10711;SDS011;5407;51.234;6.804;2023-12-28T12:56:49;11.17;;;3.00;;
10711;SDS011;5407;51.234;6.804;2023-12-28T12:59:16;10.37;;;3.20;;
10711;SDS011;5407;51.234;6.804;2023-12-28T13:01:43;9.13;;;2.30;;
10711;SDS011;5407;51.234;6.804;2023-12-28T13:04:13;9.00;;;3.00;;
10711;SDS011;5407;51.234;6.804;2023-12-28T13:06:41;11.93;;;2.73;;
10711;SDS011;5407;51.234;6.804;2023-12-28T13:09:08;9.40;;;2.83;;
10711;SDS011;5407;51.234;6.804;2023-12-28T13:11:37;10.73;;;2.60;;
10711;SDS011;5407;51.234;6.804;2023-12-28T13:14:04;8.30;;;2.60;;
10711;SDS011;5407;51.234;6.804;2023-12-28T13:16:31;10.33;;;2.93;;
10711;SDS011;5407;51.234;6.804;2023-12-28T13:18:58;10.83;;;3.00;;
10711;SDS011;5407;51.234;6.804;2023-12-28T13:21:25;10.57;;;2.57;;
10711;SDS011;5407;51.234;6.804;2023-12-28T13:23:52;6.17;;;2.57;;
10711;SDS011;5407;51.234;6.804;2023-12-28T13:26:19;9.67;;;2.30;;
10711;SDS011;5407;51.234;6.804;2023-12-28T13:28:47;11.87;;;2.60;;
10711;SDS011;5407;51.234;6.804;2023-12-28T13:31:14;9.57;;;2.53;;
10711;SDS011;5407;51.234;6.804;2023-12-28T13:33:40;11.13;;;2.37;;
10711;SDS011;5407;51.234;6.804;2023-12-28T13:36:07;10.93;;;2.67;;
10711;SDS011;5407;51.234;6.804;2023-12-28T13:38:34;6.20;;;2.13;;
10711;SDS011;5407;51.234;6.804;2023-12-28T13:41:01;10.27;;;2.87;;
10711;SDS011;5407;51.234;6.804;2023-12-28T13:43:28;11.33;;;2.63;;
10711;SDS011;5407;51.234;6.804;2023-12-28T13:45:56;7.40;;;2.43;;
10711;SDS011;5407;51.234;6.804;2023-12-28T13:48:24;9.17;;;2.90;;
10711;SDS011;5407;51.234;6.804;2023-12-28T13:50:51;10.00;;;2.87;;
10711;SDS011;5407;51.234;6.804;2023-12-28T13:53:18;6.83;;;2.40;;
10711;SDS011;5407;51.234;6.804;2023-12-28T13:55:45;8.53;;;2.57;;
10711;SDS011;5407;51.234;6.804;2023-12-28T13:58:12;9.43;;;2.30;;
10711;SDS011;5407;51.234;6.804;2023-12-28T14:00:39;7.97;;;2.80;;
10711;SDS011;5407;51.234;6.804;2023-12-28T14:03:07;9.57;;;3.10;;
10711;SDS011;5407;51.234;6.804;2023-12-28T14:05:34;11.17;;;2.70;;
10711;SDS011;5407;51.234;6.804;2023-12-28T14:08:01;7.07;;;2.53;;
10711;SDS011;5407;51.234;6.804;2023-12-28T14:10:29;7.43;;;2.30;;
10711;SDS011;5407;51.234;6.804;2023-12-28T14:12:56;6.40;;;2.13;;
10711;SDS011;5407;51.234;6.804;2023-12-28T14:15:23;10.87;;;2.50;;
10711;SDS011;5407;51.234;6.804;2023-12-28T14:17:50;7.73;;;2.67;;
10711;SDS011;5407;51.234;6.804;2023-12-28T14:20:18;8.53;;;2.70;;
10711;SDS011;5407;51.234;6.804;2023-12-28T14:22:45;9.93;;;2.97;;
10711;SDS011;5407;51.234;6.804;2023-12-28T14:25:13;8.70;;;2.90;;
10711;SDS011;5407;51.234;6.804;2023-12-28T14:27:41;7.67;;;2.67;;
10711;SDS011;5407;51.234;6.804;2023-12-28T14:30:09;6.87;;;2.60;;
10711;SDS011;5407;51.234;6.804;2023-12-28T14:32:36;6.87;;;2.00;;
10711;SDS011;5407;51.234;6.804;2023-12-28T14:35:04;8.10;;;2.60;;
10711;SDS011;5407;51.234;6.804;2023-12-28T14:37:33;9.60;;;3.00;;
10711;SDS011;5407;51.234;6.804;2023-12-28T14:40:00;11.17;;;2.77;;
10711;SDS011;5407;51.234;6.804;2023-12-28T14:42:31;9.63;;;2.70;;
10711;SDS011;5407;51.234;6.804;2023-12-28T14:44:59;10.47;;;2.77;;
10711;SDS011;5407;51.234;6.804;2023-12-28T14:47:27;8.97;;;3.00;;
10711;SDS011;5407;51.234;6.804;2023-12-28T14:49:54;10.80;;;2.80;;
10711;SDS011;5407;51.234;6.804;2023-12-28T14:52:22;8.20;;;2.43;;
10711;SDS011;5407;51.234;6.804;2023-12-28T14:54:50;11.70;;;2.50;;
10711;SDS011;5407;51.234;6.804;2023-12-28T14:57:19;6.47;;;2.23;;
10711;SDS011;5407;51.234;6.804;2023-12-28T14:59:46;8.60;;;2.70;;